Data for 06/29/2016

Time Sea-Level Adjusted Pressure Absolute Pressure Temperature Relative Humidity Dew Point   
(mb) (inHg) (mb) (inHg) (C) (F) (%) (C) (F)
00:05 1022 30.18 851 25.13 22.2 71.9 31 4.3 39.7
00:10 1022 30.18 851 25.13 22.1 71.7 31 4.3 39.8
00:15 1022 30.18 851 25.13 21.9 71.5 31 4.4 40
00:20 1022 30.18 851 25.13 21.8 71.3 32 4.4 40
00:25 1022 30.18 851 25.13 21.7 71 32 4.6 40.3
00:30 1022 30.18 851 25.13 21.6 70.9 32 4.6 40.2
00:35 1022 30.18 851 25.13 21.5 70.7 33 4.7 40.4
00:40 1022 30.18 851 25.13 21.4 70.4 33 4.7 40.4
00:45 1022 30.18 851 25.13 21.3 70.4 33 4.7 40.4
00:50 1022 30.18 851 25.13 21.3 70.3 34 4.9 40.7
00:55 1022 30.18 851 25.13 21.1 70 35 5 41.1
01:00 1022 30.18 851 25.13 20.9 69.7 35 5 41
01:05 1022 30.18 851 25.13 20.9 69.7 35 5.1 41.1
01:10 1022 30.18 851 25.13 20.8 69.5 36 5.2 41.3
01:15 1022 30.18 851 25.13 20.8 69.4 36 5.2 41.4
01:20 1022 30.18 851 25.13 20.6 69.1 36 5.3 41.5
01:25 1022 30.18 851 25.13 20.5 68.9 37 5.4 41.7
01:30 1022 30.18 851 25.13 20.5 68.8 37 5.4 41.6
01:35 1022 30.18 851 25.13 20.5 68.9 37 5.5 41.9
01:40 1022 30.18 851 25.13 20.5 68.9 37 5.5 41.9
01:45 1022 30.18 851 25.13 20.5 68.8 37 5.5 41.9
01:50 1022 30.18 851 25.13 20.5 68.9 37 5.6 42.2
01:55 1022 30.18 851 25.13 20.4 68.7 38 5.7 42.3
02:00 1022 30.18 851 25.13 20.4 68.6 38 5.7 42.2
02:05 1022 30.18 852 25.16 20.3 68.5 39 5.9 42.7
02:10 1022 30.18 852 25.16 20.1 68.1 39 6 42.8
02:15 1022 30.18 852 25.16 19.8 67.7 40 6 42.7
02:20 1022 30.18 852 25.16 19.7 67.4 41 6.1 43
02:25 1023 30.21 852 25.16 19.5 67.1 41 6.1 43.1
02:30 1022 30.18 852 25.16 19.4 66.9 42 6.4 43.5
02:35 1022 30.18 852 25.16 19.1 66.4 43 6.4 43.5
02:40 1022 30.18 852 25.16 18.9 66.1 43 6.2 43.2
02:45 1022 30.18 852 25.16 19 66.2 43 6.3 43.3
02:50 1022 30.18 852 25.16 18.9 66.1 44 6.6 43.8
02:55 1022 30.18 852 25.16 18.7 65.7 45 6.7 44.1
03:00 1022 30.18 852 25.16 18.5 65.3 46 6.6 43.9
03:05 1022 30.18 852 25.16 18.3 65 46 6.6 43.8
03:10 1022 30.18 852 25.16 18.2 64.8 47 6.8 44.2
03:15 1022 30.18 852 25.16 18.3 64.9 47 6.8 44.3
03:20 1022 30.18 852 25.16 18.3 64.9 47 6.8 44.3
03:25 1023 30.21 852 25.16 18.3 64.9 47 7 44.6
03:30 1022 30.18 852 25.16 18.1 64.7 48 7 44.5
03:35 1023 30.21 852 25.16 18.2 64.8 46 6.6 43.8
03:40 1023 30.21 852 25.16 18.3 65 47 6.8 44.3
03:45 1023 30.21 852 25.16 18.3 65 46 6.7 44.1
03:50 1023 30.21 852 25.16 18.4 65 47 6.9 44.4
03:55 1023 30.21 852 25.16 18.2 64.7 47 6.9 44.4
04:00 1023 30.21 852 25.16 18.2 64.7 47 6.8 44.3
04:05 1023 30.21 852 25.16 18.2 64.8 47 6.9 44.4
04:10 1023 30.21 852 25.16 18.2 64.7 47 6.9 44.5
04:15 1023 30.21 852 25.16 18.3 64.9 47 6.8 44.2
04:20 1023 30.21 852 25.16 18.3 64.9 48 7.3 45.2
04:25 1023 30.21 852 25.16 17.5 63.5 50 7.2 44.9
04:30 1023 30.21 852 25.16 17.5 63.4 50 7 44.7
04:35 1023 30.21 852 25.16 17.3 63.2 52 7.4 45.3
04:40 1023 30.21 852 25.16 16.9 62.5 54 7.6 45.6
04:45 1023 30.21 852 25.16 16.5 61.6 55 7.6 45.7
04:50 1023 30.21 852 25.16 16.3 61.4 56 7.7 45.8
04:55 1023 30.21 852 25.16 16.2 61.1 56 7.5 45.5
05:00 1023 30.21 852 25.16 15.8 60.5 57 7.5 45.5
05:05 1023 30.21 852 25.16 15.7 60.2 57 7.1 44.9
05:10 1023 30.21 853 25.19 15.6 60 56 6.9 44.4
05:15 1023 30.21 853 25.19 15.3 59.5 56 6.7 44.1
05:20 1024 30.24 853 25.19 15.1 59.2 56 6.6 43.8
05:25 1024 30.24 853 25.19 15.2 59.4 55 6.3 43.3
05:30 1024 30.24 853 25.19 15.4 59.7 55 6.5 43.7
05:35 1024 30.24 853 25.19 15.6 60 55 6.6 43.9
05:40 1024 30.24 853 25.19 15.8 60.5 54 6.5 43.7
05:45 1024 30.24 853 25.19 15.9 60.5 54 6.7 44
05:50 1024 30.24 853 25.19 16 60.8 55 7 44.5
05:55 1024 30.24 853 25.19 15.9 60.7 55 7 44.5
06:00 1024 30.24 853 25.19 16 60.7 54 6.9 44.3
06:05 1024 30.24 853 25.19 16.4 61.5 54 7.1 44.7
06:10 1024 30.24 853 25.19 16.8 62.2 51 6.8 44.2
06:15 1024 30.24 853 25.19 17 62.6 53 7.5 45.5
06:20 1024 30.24 853 25.19 17.2 62.9 53 7.6 45.6
06:25 1024 30.24 853 25.19 17.5 63.4 49 6.8 44.3
06:30 1024 30.24 853 25.19 17.9 64.3 49 7.1 44.7
06:35 1024 30.24 853 25.19 18.1 64.5 50 7.7 45.8
06:40 1024 30.24 853 25.19 17.7 63.9 50 7.4 45.4
06:45 1024 30.24 853 25.19 18.1 64.7 49 7.3 45.2
06:50 1024 30.24 853 25.19 18 64.4 49 7.2 44.9
06:55 1024 30.24 853 25.19 18.3 64.9 47 7 44.6
07:00 1024 30.24 853 25.19 18.6 65.4 45 6.6 43.9
07:05 1024 30.24 853 25.19 18.4 65.2 47 7.1 44.7
07:10 1024 30.24 853 25.19 18.7 65.7 47 7.2 44.9
07:15 1024 30.24 853 25.19 19.6 67.4 43 7 44.6
07:20 1024 30.24 853 25.19 20.2 68.3 42 6.9 44.5
07:25 1024 30.24 853 25.19 20.3 68.5 42 7 44.7
07:30 1024 30.24 853 25.19 20.5 68.9 41 7.1 44.7
07:35 1024 30.24 853 25.19 20.7 69.3 40 6.6 43.9
07:40 1024 30.24 853 25.19 21.2 70.1 39 6.9 44.4
07:45 1024 30.24 853 25.19 20.9 69.7 40 7.1 44.8
07:50 1024 30.24 853 25.19 20.6 69.1 41 7.2 45
07:55 1024 30.24 853 25.19 21 69.9 39 6.7 44.1
08:00 1024 30.24 853 25.19 21.5 70.7 39 7 44.7
08:05 1024 30.24 853 25.19 21.8 71.2 38 7.1 44.7
08:10 1024 30.24 853 25.19 21.8 71.2 38 7.1 44.8
08:15 1024 30.24 853 25.19 22.5 72.4 36 6.9 44.5
08:20 1024 30.24 853 25.19 23.1 73.6 35 7 44.7
08:25 1024 30.24 853 25.19 22.5 72.5 38 7.6 45.7
08:30 1024 30.24 853 25.19 22.2 71.9 39 7.7 45.8
08:35 1024 30.24 853 25.19 22.1 71.7 35 6 42.8
08:40 1024 30.24 853 25.19 22.4 72.4 36 6.7 44.1
08:45 1024 30.24 853 25.19 23.1 73.6 36 7.2 45
08:50 1024 30.24 853 25.19 23.3 74 36 7.5 45.5
08:55 1024 30.24 853 25.19 23.2 73.7 35 6.9 44.5
09:00 1024 30.24 853 25.19 23.2 73.8 37 7.8 46
09:05 1024 30.24 853 25.19 22.3 72.1 39 8 46.4
09:10 1024 30.24 853 25.19 23.2 73.7 34 6.6 43.9
09:15 1024 30.24 853 25.19 23.6 74.4 36 7.7 45.8
09:20 1024 30.24 853 25.19 23.6 74.6 36 7.7 45.9
09:25 1024 30.24 853 25.19 23.8 74.9 34 7.3 45.1
09:30 1024 30.24 853 25.19 24.1 75.5 34 7.5 45.5
09:35 1024 30.24 853 25.19 24.7 76.5 33 7.5 45.5
09:40 1024 30.24 853 25.19 25.4 77.6 32 7.8 46
09:45 1024 30.24 853 25.19 25.4 77.8 33 8.2 46.8
09:50 1024 30.24 853 25.19 24.6 76.3 35 8.5 47.4
09:55 1024 30.24 853 25.19 23.9 75.1 36 8.3 47
10:00 1024 30.24 853 25.19 24.3 75.7 34 7.7 45.9
10:05 1024 30.24 853 25.19 25.1 77.2 33 8.1 46.5
10:10 1024 30.24 853 25.19 25.9 78.6 31 7.7 45.8
10:15 1024 30.24 853 25.19 26.2 79.1 32 8.3 46.9
10:20 1024 30.24 853 25.19 26.4 79.5 31 8.2 46.8
10:25 1024 30.24 853 25.19 26.6 79.8 32 8.7 47.6
10:30 1024 30.24 853 25.19 26.8 80.2 31 8.4 47.1
10:35 1024 30.24 853 25.19 26.8 80.2 32 8.8 47.8
10:40 1024 30.24 853 25.19 26.5 79.7 32 8.7 47.6
10:45 1024 30.24 853 25.19 26.4 79.4 31 8.4 47.1
10:50 1024 30.24 853 25.19 26.1 79 34 9.2 48.6
10:55 1024 30.24 853 25.19 26.5 79.7 32 8.8 47.9
11:00 1024 30.24 853 25.19 26.7 80 32 8.9 48
11:05 1024 30.24 853 25.19 26.6 79.9 32 8.8 47.8
11:10 1024 30.24 853 25.19 26.7 80 33 9.2 48.6
11:15 1024 30.24 853 25.19 26.8 80.2 32 9.2 48.5
11:20 1024 30.24 853 25.19 26 78.9 35 9.8 49.7
11:25 1024 30.24 853 25.19 24.9 76.9 37 9.4 49
11:30 1023 30.21 853 25.19 25.5 77.8 33 8.2 46.7
11:35 1023 30.21 853 25.19 26.9 80.4 32 9.1 48.3
11:40 1023 30.21 853 25.19 26.8 80.3 33 9.5 49.1
11:45 1023 30.21 853 25.19 26.4 79.6 33 8.9 48.1
11:50 1023 30.21 852 25.16 27.5 81.5 31 9.4 48.8
11:55 1023 30.21 852 25.16 27.8 82 31 9.5 49
12:00 1023 30.21 852 25.16 28.3 82.9 30 9.5 49.1
12:05 1023 30.21 852 25.16 28.3 83 31 9.8 49.6
12:10 1023 30.21 852 25.16 28.6 83.5 30 9.8 49.6
12:15 1023 30.21 852 25.16 28.1 82.5 31 9.8 49.7
12:20 1023 30.21 852 25.16 27.8 82 32 9.7 49.4
12:25 1023 30.21 852 25.16 28.1 82.5 31 9.5 49.1
12:30 1023 30.21 852 25.16 27.3 81.2 31 9.2 48.5
12:35 1023 30.21 852 25.16 28.1 82.6 32 10.3 50.5
12:40 1023 30.21 852 25.16 27.7 81.9 31 9.5 49.2
12:45 1023 30.21 852 25.16 27.4 81.3 30 8.5 47.4
12:50 1023 30.21 852 25.16 28.2 82.8 29 8.6 47.5
12:55 1023 30.21 852 25.16 28.6 83.6 28 8.8 47.9
13:00 1022 30.18 852 25.16 28.7 83.7 29 9.2 48.6
13:05 1022 30.18 852 25.16 27.6 81.6 31 9 48.2
13:10 1022 30.18 852 25.16 27.9 82.2 30 8.9 47.9
13:15 1022 30.18 852 25.16 27.4 81.3 29 7.9 46.3
13:20 1022 30.18 851 25.13 28.5 83.2 29 9.1 48.5
13:25 1022 30.18 851 25.13 28.3 83 29 9 48.1
13:30 1022 30.18 851 25.13 28.6 83.5 28 8.5 47.4
13:35 1022 30.18 851 25.13 28.8 83.8 26 7.8 46.1
13:40 1022 30.18 851 25.13 29.2 84.5 24 6.9 44.4
13:45 1022 30.18 851 25.13 29.5 85 24 6.9 44.5
13:50 1022 30.18 851 25.13 30.4 86.7 22 6.9 44.4
13:55 1022 30.18 851 25.13 29.8 85.6 25 8.1 46.6
14:00 1022 30.18 851 25.13 29.9 85.8 21 5.4 41.7
14:05 1022 30.18 851 25.13 30.8 87.5 15 1.5 34.6
14:10 1022 30.18 851 25.13 30.6 87 13 -0.4 31.3
14:15 1022 30.18 851 25.13 31 87.7 14 1.1 34
14:20 1022 30.18 851 25.13 31.1 87.9 15 1.3 34.4
14:25 1022 30.18 851 25.13 31 87.9 12 -1.4 29.4
14:30 1022 30.18 851 25.13 31.4 88.6 12 -1 30.1
14:35 1022 30.18 851 25.13 31.1 87.9 12 -1 30.2
14:40 1022 30.18 851 25.13 30.1 86.1 13 -1.1 30
14:45 1021 30.15 851 25.13 30.9 87.5 13 -0.5 31
14:50 1021 30.15 851 25.13 30.7 87.3 13 -0.6 31
14:55 1021 30.15 851 25.13 30.5 86.9 14 0.1 32.2
15:00 1021 30.15 851 25.13 30.1 86.2 14 0.4 32.7
15:05 1021 30.15 850 25.1 30 86.1 13 -0.7 30.8
15:10 1021 30.15 850 25.1 30.4 86.8 14 0.5 32.9
15:15 1021 30.15 850 25.1 30.5 87 15 1.4 34.6
15:20 1021 30.15 850 25.1 31.2 88.1 13 0.3 32.5
15:25 1021 30.15 850 25.1 31.4 88.4 13 0.4 32.8
15:30 1021 30.15 850 25.1 31.1 87.9 13 0.2 32.3
15:35 1021 30.15 850 25.1 30.3 86.5 13 -0.5 31.2
15:40 1021 30.15 850 25.1 30.3 86.6 13 -0.4 31.2
15:45 1021 30.15 850 25.1 31.1 88 13 0 32
15:50 1021 30.15 850 25.1 30.6 87.2 13 -0.9 30.4
15:55 1021 30.15 850 25.1 30.8 87.4 13 -0.7 30.8
16:00 1021 30.15 850 25.1 31.2 88.1 13 -0.3 31.4
16:05 1021 30.15 850 25.1 31 87.8 13 -0.6 30.9
16:10 1021 30.15 850 25.1 31.2 88.2 13 -0.2 31.7
16:15 1021 30.15 850 25.1 31.3 88.3 13 -0.4 31.2
16:20 1020 30.12 850 25.1 30.3 86.6 13 -1.2 29.9
16:25 1020 30.12 850 25.1 30.3 86.5 13 -1.3 29.7
16:30 1020 30.12 850 25.1 30.9 87.6 11 -2.2 28.1
16:35 1020 30.12 850 25.1 30.9 87.6 11 -2.5 27.4
16:40 1020 30.12 849 25.07 30.5 86.8 11 -2.7 27.2
16:45 1020 30.12 849 25.07 30.3 86.6 12 -2.1 28.3
16:50 1020 30.12 849 25.07 30 85.9 12 -2.7 27.1
16:55 1020 30.12 849 25.07 30.7 87.3 12 -2 28.4
17:00 1020 30.12 849 25.07 30.5 87 12 -1.9 28.6
17:05 1020 30.12 849 25.07 30.3 86.6 12 -1.6 29.1
17:10 1020 30.12 849 25.07 29.3 84.7 25 7.7 45.8
17:15 1020 30.12 849 25.07 27.6 81.6 28 7.5 45.4
17:20 1020 30.12 849 25.07 27.3 81.2 27 7.2 44.9
17:25 1020 30.12 849 25.07 27.2 81 28 7.4 45.3
17:30 1020 30.12 849 25.07 26.9 80.3 29 7.8 46
17:35 1020 30.12 850 25.1 26.3 79.3 30 7.8 46
17:40 1020 30.12 850 25.1 26.2 79.1 30 7.6 45.6
17:45 1020 30.12 850 25.1 26.1 79 30 7.5 45.5
17:50 1020 30.12 850 25.1 26.4 79.5 31 7.9 46.3
17:55 1020 30.12 850 25.1 26.3 79.4 30 7.7 45.8
18:00 1020 30.12 850 25.1 26.2 79.1 30 7.5 45.5
18:05 1020 30.12 850 25.1 26 78.9 30 7.4 45.3
18:10 1020 30.12 850 25.1 25.9 78.6 30 7.5 45.4
18:15 1020 30.12 850 25.1 25.8 78.4 31 7.4 45.4
18:20 1020 30.12 850 25.1 25.6 78.1 31 7.4 45.3
18:25 1020 30.12 850 25.1 25.7 78.2 31 7.7 45.9
18:30 1020 30.12 850 25.1 25.6 78.1 31 7.5 45.5
18:35 1021 30.15 850 25.1 25.4 77.8 31 7.6 45.6
18:40 1021 30.15 850 25.1 25.3 77.6 32 7.7 45.8
18:45 1021 30.15 850 25.1 25.2 77.4 32 7.5 45.5
18:50 1021 30.15 850 25.1 25 77.1 32 7.4 45.3
18:55 1021 30.15 850 25.1 24.9 76.8 32 7.4 45.3
19:00 1021 30.15 850 25.1 24.8 76.6 32 7.2 45
19:05 1021 30.15 850 25.1 24.6 76.3 33 7.4 45.3
19:10 1021 30.15 850 25.1 24.5 76.1 33 7.6 45.6
19:15 1021 30.15 850 25.1 24.4 75.8 34 7.6 45.6
19:20 1021 30.15 850 25.1 24.3 75.7 34 7.6 45.7
19:25 1021 30.15 850 25.1 24.1 75.4 34 7.6 45.7
19:30 1021 30.15 850 25.1 24 75.1 35 7.6 45.7
19:35 1021 30.15 850 25.1 23.8 74.9 35 7.5 45.6
19:40 1021 30.15 850 25.1 23.7 74.6 35 7.7 45.9
19:45 1021 30.15 850 25.1 23.5 74.3 36 7.8 46.1
19:50 1021 30.15 850 25.1 23.3 74 37 7.8 46.1
19:55 1021 30.15 850 25.1 23.2 73.7 37 8 46.4
20:00 1021 30.15 850 25.1 23 73.4 38 8 46.4
20:05 1021 30.15 850 25.1 22.9 73.2 38 8.1 46.6
20:10 1021 30.15 850 25.1 22.8 73.1 38 8.1 46.5
20:15 1021 30.15 851 25.13 22.7 72.9 39 8.2 46.7
20:20 1021 30.15 851 25.13 22.6 72.7 39 8 46.4
20:25 1021 30.15 851 25.13 22.6 72.6 39 8 46.4
20:30 1021 30.15 851 25.13 22.6 72.6 38 7.7 45.9
20:35 1022 30.18 851 25.13 22.6 72.7 38 7.9 46.2
20:40 1022 30.18 851 25.13 22.5 72.5 39 7.9 46.2
20:45 1022 30.18 851 25.13 22.4 72.3 39 8 46.4
20:50 1022 30.18 851 25.13 22.3 72.1 39 7.9 46.3
20:55 1022 30.18 851 25.13 22.2 71.9 40 8 46.4
21:00 1022 30.18 851 25.13 22.1 71.7 40 7.9 46.3
21:05 1022 30.18 851 25.13 22 71.6 40 8.1 46.6
21:10 1022 30.18 851 25.13 21.9 71.4 40 7.9 46.1
21:15 1022 30.18 851 25.13 22 71.6 39 7.5 45.6
21:20 1022 30.18 852 25.16 22 71.7 39 7.6 45.7
21:25 1022 30.18 852 25.16 22.1 71.8 38 7.5 45.4
21:30 1023 30.21 852 25.16 22.1 71.9 39 7.6 45.7
21:35 1023 30.21 852 25.16 22.1 71.7 39 7.6 45.6
21:40 1023 30.21 852 25.16 22.1 71.7 39 7.5 45.4
21:45 1023 30.21 852 25.16 22.1 71.8 38 7.5 45.4
21:50 1023 30.21 852 25.16 22.1 71.7 39 7.5 45.5
21:55 1024 30.24 853 25.19 22 71.7 39 7.5 45.6
22:00 1024 30.24 853 25.19 22 71.6 42 8.8 47.8
22:05 1024 30.24 854 25.22 21.2 70.1 50 10.6 51
22:10 1025 30.27 854 25.22 19.9 67.8 55 10.7 51.3
22:15 1025 30.27 854 25.22 19.6 67.3 57 11 51.8
22:20 1025 30.27 854 25.22 18.7 65.7 59 10.6 51
22:25 1025 30.27 854 25.22 18.4 65.1 59 10.4 50.8
22:30 1025 30.27 854 25.22 18.1 64.6 68 12.1 53.8
22:35 1025 30.27 854 25.22 17.2 63 72 12.3 54.1
22:40 1025 30.27 854 25.22 16.6 62 73 11.8 53.2
22:45 1025 30.27 855 25.25 16.6 61.8 74 12 53.6
22:50 1025 30.27 855 25.25 16.4 61.5 76 12.2 53.9
22:55 1025 30.27 855 25.25 16.2 61.1 80 12.7 54.9
23:00 1025 30.27 855 25.25 16 60.7 81 12.7 54.9
23:05 1025 30.27 854 25.22 15.6 60.1 82 12.7 54.8
23:10 1024 30.24 853 25.19 15.4 59.6 82 12.3 54.2
23:15 1024 30.24 853 25.19 15.1 59.2 83 12.3 54.1
23:20 1023 30.21 852 25.16 15.1 59.2 82 12.1 53.7
23:25 1023 30.21 852 25.16 15.3 59.5 81 12 53.6
23:30 1023 30.21 852 25.16 15.2 59.3 81 12 53.6
23:35 1023 30.21 852 25.16 15.4 59.7 80 11.9 53.4
23:40 1023 30.21 852 25.16 15.4 59.8 79 11.8 53.2
23:45 1023 30.21 852 25.16 15.3 59.5 77 11.3 52.4
23:50 1022 30.18 851 25.13 15.3 59.5 76 11.2 52.2
23:55 1022 30.18 851 25.13 15.3 59.5 78 11.5 52.7
24:00 1022 30.18 851 25.13 15.3 59.5 77 11.3 52.3